createdAt,value
2022-08-20T00:00:20.767Z,23.58
2022-08-20T00:02:51.357Z,23.65
2022-08-20T00:05:26.578Z,23.30
2022-08-20T00:07:53.357Z,21.50
2022-08-20T00:10:20.640Z,21.73
2022-08-20T00:12:49.694Z,20.67
2022-08-20T00:15:21.730Z,21.30
2022-08-20T00:17:52.071Z,20.40
2022-08-20T00:20:21.348Z,19.58
2022-08-20T00:22:48.336Z,18.10
2022-08-20T00:25:15.867Z,18.75
2022-08-20T00:27:42.572Z,17.90
2022-08-20T00:30:12.142Z,17.85
2022-08-20T00:32:47.745Z,16.85
2022-08-20T00:35:16.905Z,17.65
2022-08-20T00:37:43.773Z,16.63
2022-08-20T00:40:22.551Z,18.30
2022-08-20T00:42:57.481Z,16.70
2022-08-20T00:45:27.231Z,16.10
2022-08-20T00:47:57.166Z,17.63
2022-08-20T00:50:33.052Z,16.58
2022-08-20T00:53:02.819Z,15.90
2022-08-20T00:55:31.840Z,14.65
2022-08-20T00:58:03.287Z,15.02
2022-08-20T01:03:00.683Z,14.50
2022-08-20T01:05:29.812Z,14.82
2022-08-20T01:07:57.669Z,13.40
2022-08-20T01:10:32.239Z,14.50
2022-08-20T01:12:59.801Z,13.45
2022-08-20T01:15:31.803Z,13.00
2022-08-20T01:18:00.320Z,13.45
2022-08-20T01:20:34.128Z,12.82
2022-08-20T01:23:30.194Z,12.77
2022-08-20T01:26:08.899Z,11.80
2022-08-20T01:28:50.349Z,11.27
2022-08-20T01:31:20.255Z,11.80
2022-08-20T01:33:48.993Z,11.65
2022-08-20T01:36:19.964Z,11.48
2022-08-20T01:38:54.136Z,11.75
2022-08-20T01:41:36.245Z,11.02
2022-08-20T01:44:03.280Z,11.90
2022-08-20T01:46:36.741Z,12.63
2022-08-20T01:49:30.475Z,13.25
2022-08-20T01:52:00.436Z,13.07
2022-08-20T01:54:28.067Z,13.27
2022-08-20T01:57:02.340Z,13.70
2022-08-20T01:59:30.075Z,13.93
2022-08-20T02:01:58.017Z,13.23
2022-08-20T02:04:25.249Z,14.25
2022-08-20T02:06:57.732Z,14.25
2022-08-20T02:09:30.543Z,14.02
2022-08-20T02:11:57.853Z,14.13
2022-08-20T02:14:25.267Z,14.25
2022-08-20T02:16:55.017Z,13.48
2022-08-20T02:19:47.504Z,14.10
2022-08-20T02:22:21.570Z,14.25
2022-08-20T02:24:48.407Z,14.52
2022-08-20T02:27:15.157Z,15.57
2022-08-20T02:29:41.944Z,16.55
2022-08-20T02:32:24.984Z,16.10
2022-08-20T02:34:55.732Z,15.20
2022-08-20T02:37:22.479Z,16.52
2022-08-20T02:39:49.164Z,16.35
2022-08-20T02:42:16.969Z,16.65
2022-08-20T02:44:43.650Z,15.52
2022-08-20T02:47:10.347Z,17.55
2022-08-20T02:49:37.023Z,17.13
2022-08-20T02:52:04.088Z,16.92
2022-08-20T02:54:30.764Z,17.63
2022-08-20T02:56:57.411Z,17.35
2022-08-20T02:59:24.065Z,19.55
2022-08-20T03:01:59.163Z,18.27
2022-08-20T03:04:29.363Z,19.38
2022-08-20T03:06:56.956Z,19.75
2022-08-20T03:09:23.756Z,19.95
2022-08-20T03:11:50.381Z,20.15
2022-08-20T03:14:17.172Z,20.15
2022-08-20T03:16:43.807Z,20.98
2022-08-20T03:19:10.484Z,25.20
2022-08-20T03:21:37.252Z,24.20
2022-08-20T03:24:04.234Z,25.15
2022-08-20T03:26:31.060Z,25.27
2022-08-20T03:28:57.871Z,23.80
2022-08-20T03:31:24.559Z,26.75
2022-08-20T03:33:53.589Z,25.75
2022-08-20T03:36:22.188Z,27.90
2022-08-20T03:38:56.215Z,29.30
2022-08-20T03:41:23.882Z,27.83
2022-08-20T03:43:51.063Z,29.02
2022-08-20T03:46:23.247Z,26.27
2022-08-20T03:48:56.643Z,28.35
2022-08-20T03:51:30.869Z,28.08
2022-08-20T03:53:57.968Z,29.50
2022-08-20T03:56:24.723Z,31.05
2022-08-20T03:58:51.341Z,30.60
2022-08-20T04:01:36.867Z,32.60
2022-08-20T04:04:05.100Z,31.30
2022-08-20T04:06:39.105Z,31.75
2022-08-20T04:09:07.111Z,30.08
2022-08-20T04:11:37.620Z,31.73
2022-08-20T04:14:04.850Z,32.45
2022-08-20T04:16:33.599Z,32.03
2022-08-20T04:19:02.242Z,31.58
2022-08-20T04:21:33.061Z,31.60
2022-08-20T04:24:00.866Z,31.75
2022-08-20T04:26:27.632Z,28.95
2022-08-20T04:28:55.643Z,30.55
2022-08-20T04:31:25.339Z,28.25
2022-08-20T04:33:52.564Z,29.30
2022-08-20T04:36:19.428Z,28.95
2022-08-20T04:38:50.117Z,30.23
2022-08-20T04:41:23.571Z,32.33
2022-08-20T04:43:54.861Z,31.90
2022-08-20T04:46:26.091Z,30.77
2022-08-20T04:48:53.123Z,31.33
2022-08-20T04:51:23.388Z,29.90
2022-08-20T04:53:53.629Z,28.63
2022-08-20T04:56:26.021Z,29.35
2022-08-20T04:58:55.631Z,27.75
2022-08-20T05:01:23.939Z,28.20
2022-08-20T05:03:51.337Z,28.60
2022-08-20T05:06:18.786Z,29.02
2022-08-20T05:08:45.792Z,28.90
2022-08-20T05:11:35.012Z,27.63
2022-08-20T05:14:01.135Z,28.77
2022-08-20T05:16:27.809Z,28.80
2022-08-20T05:18:54.471Z,28.88
2022-08-20T05:21:21.614Z,28.92
2022-08-20T05:23:49.279Z,27.45
2022-08-20T05:26:17.073Z,27.40
2022-08-20T05:28:54.256Z,27.15
2022-08-20T05:34:12.610Z,26.75
2022-08-20T05:36:41.577Z,26.05
2022-08-20T05:39:09.122Z,27.00
2022-08-20T05:41:36.416Z,26.58
2022-08-20T05:44:04.900Z,23.98
2022-08-20T05:46:32.344Z,25.60
2022-08-20T05:49:01.835Z,27.15
2022-08-20T05:51:29.939Z,26.75
2022-08-20T05:53:59.186Z,26.83
2022-08-20T05:56:30.406Z,24.83
2022-08-20T05:59:00.990Z,25.95
2022-08-20T06:01:27.750Z,25.15
2022-08-20T06:04:12.919Z,24.33
2022-08-20T06:06:45.290Z,25.20
2022-08-20T06:09:31.415Z,24.23
2022-08-20T06:12:04.890Z,23.75
2022-08-20T06:14:33.005Z,24.20
2022-08-20T06:17:09.941Z,24.92
2022-08-20T06:19:38.341Z,24.05
2022-08-20T06:22:08.672Z,24.90
2022-08-20T06:24:48.032Z,24.60
2022-08-20T06:27:16.654Z,24.65
2022-08-20T06:29:43.845Z,23.50
2022-08-20T06:32:11.537Z,22.98
2022-08-20T06:34:38.382Z,22.98
2022-08-20T06:37:30.847Z,24.50
2022-08-20T06:40:03.142Z,25.98
2022-08-20T06:42:30.005Z,25.58
2022-08-20T06:44:56.733Z,24.88
2022-08-20T06:47:23.913Z,26.33
2022-08-20T06:49:50.706Z,25.25
2022-08-20T06:52:17.890Z,26.70
2022-08-20T06:54:45.496Z,27.30
2022-08-20T06:57:12.907Z,26.15
2022-08-20T06:59:39.829Z,26.88
2022-08-20T07:02:06.926Z,27.23
2022-08-20T07:04:33.973Z,26.02
2022-08-20T07:07:00.689Z,25.75
2022-08-20T07:09:28.335Z,27.00
2022-08-20T07:11:55.189Z,26.73
2022-08-20T07:14:22.345Z,28.83
2022-08-20T07:16:49.696Z,28.48
2022-08-20T07:19:16.558Z,28.35
2022-08-20T07:21:43.515Z,28.13
2022-08-20T07:24:10.529Z,28.42
2022-08-20T07:26:37.314Z,27.50
2022-08-20T07:29:04.167Z,27.63
2022-08-20T07:31:49.373Z,28.63
2022-08-20T07:34:16.887Z,29.30
2022-08-20T07:36:48.906Z,29.15
2022-08-20T07:39:15.628Z,30.00
2022-08-20T07:41:43.774Z,29.58
2022-08-20T07:44:21.704Z,32.38
2022-08-20T07:46:59.290Z,31.00
2022-08-20T07:49:26.056Z,32.20
2022-08-20T07:51:52.669Z,32.85
2022-08-20T07:54:19.328Z,33.33
2022-08-20T07:56:45.938Z,33.55
2022-08-20T07:59:13.947Z,33.67
2022-08-20T08:01:40.815Z,32.95
2022-08-20T08:04:07.452Z,34.28
2022-08-20T08:06:34.738Z,33.50
2022-08-20T08:09:05.704Z,33.42
2022-08-20T08:11:35.328Z,35.03
2022-08-20T08:14:03.321Z,33.25
2022-08-20T08:16:32.486Z,34.08
2022-08-20T08:19:02.048Z,31.13
2022-08-20T08:21:40.004Z,30.55
2022-08-20T08:24:07.188Z,33.08
2022-08-20T08:26:33.893Z,32.08
2022-08-20T08:29:00.579Z,33.22
2022-08-20T08:31:27.358Z,32.30
2022-08-20T08:33:55.600Z,30.98
2022-08-20T08:36:22.289Z,32.35
2022-08-20T08:38:48.952Z,32.25
2022-08-20T08:41:32.325Z,30.10
2022-08-20T08:44:24.919Z,32.58
2022-08-20T08:46:57.653Z,32.95
2022-08-20T08:49:35.195Z,32.55
2022-08-20T08:52:36.735Z,33.15
2022-08-20T08:55:10.064Z,33.58
2022-08-20T08:57:38.880Z,32.30
2022-08-20T09:00:14.435Z,30.75
2022-08-20T09:02:55.184Z,30.27
2022-08-20T09:05:27.387Z,30.52
2022-08-20T09:07:54.601Z,30.83
2022-08-20T09:10:25.201Z,31.05
2022-08-20T09:12:52.572Z,31.42
2022-08-20T09:15:21.190Z,29.42
2022-08-20T09:17:47.841Z,28.67
2022-08-20T09:20:14.569Z,28.80
2022-08-20T09:22:41.642Z,27.08
2022-08-20T09:25:09.275Z,27.65
2022-08-20T09:27:36.448Z,26.95
2022-08-20T09:30:06.291Z,26.23
2022-08-20T09:35:52.565Z,25.40
2022-08-20T09:38:20.504Z,24.02
2022-08-20T09:40:47.294Z,22.30
2022-08-20T09:43:14.183Z,24.50
2022-08-20T09:45:41.042Z,25.02
2022-08-20T09:48:10.501Z,22.70
2022-08-20T09:50:47.041Z,23.60
2022-08-20T09:53:14.219Z,23.08
2022-08-20T09:55:44.231Z,20.20
2022-08-20T09:58:13.929Z,19.58
2022-08-20T10:00:40.804Z,19.52
2022-08-20T10:03:07.557Z,19.08
2022-08-20T10:05:34.437Z,19.13
2022-08-20T10:08:05.837Z,19.40
2022-08-20T10:10:32.613Z,17.17
2022-08-20T10:12:59.274Z,17.88
2022-08-20T10:15:26.031Z,17.20
2022-08-20T10:17:52.679Z,16.10
2022-08-20T10:20:19.777Z,14.27
2022-08-20T10:22:46.574Z,13.18
2022-08-20T10:25:13.580Z,13.65
2022-08-20T10:27:40.341Z,10.18
2022-08-20T10:30:07.992Z,10.07
2022-08-20T10:32:34.952Z,11.40
2022-08-20T10:35:02.941Z,12.18
2022-08-20T10:37:29.615Z,11.43
2022-08-20T10:39:56.729Z,10.65
2022-08-20T10:42:23.499Z,9.52
2022-08-20T10:44:50.222Z,8.13
2022-08-20T10:47:26.376Z,7.25
2022-08-20T10:49:54.713Z,7.93
2022-08-20T10:52:22.398Z,7.93
2022-08-20T10:54:50.243Z,8.30
2022-08-20T10:57:22.825Z,8.10
2022-08-20T10:59:51.822Z,7.78
2022-08-20T11:02:19.901Z,8.32
2022-08-20T11:04:46.825Z,7.30
2022-08-20T11:07:50.015Z,8.35
2022-08-20T11:10:13.769Z,7.60
2022-08-20T11:12:41.095Z,7.55
2022-08-20T11:15:11.498Z,7.43
2022-08-20T11:17:42.706Z,7.45
2022-08-20T11:20:12.866Z,8.15
2022-08-20T11:22:39.803Z,7.45
2022-08-20T11:25:07.240Z,7.05
2022-08-20T11:27:36.594Z,7.90
2022-08-20T11:30:05.357Z,7.53
2022-08-20T11:32:32.089Z,7.18
2022-08-20T11:34:58.774Z,7.00
2022-08-20T11:37:26.056Z,7.05
2022-08-20T11:39:52.752Z,6.43
2022-08-20T11:42:19.926Z,6.13
2022-08-20T11:44:46.779Z,6.07
2022-08-20T11:47:25.994Z,5.90
2022-08-20T11:50:00.748Z,6.05
2022-08-20T11:52:28.456Z,5.18
2022-08-20T11:54:56.824Z,6.10
2022-08-20T11:57:26.972Z,6.32
2022-08-20T11:59:55.798Z,6.03
2022-08-20T12:02:22.705Z,5.57
2022-08-20T12:04:49.770Z,5.07
2022-08-20T12:07:20.291Z,5.40
2022-08-20T12:09:50.934Z,5.60
2022-08-20T12:12:20.722Z,6.03
2022-08-20T12:14:47.521Z,5.95
2022-08-20T12:17:26.827Z,5.65
2022-08-20T12:19:56.087Z,5.35
2022-08-20T12:22:25.171Z,5.03
2022-08-20T12:24:55.559Z,5.03
2022-08-20T12:27:28.559Z,5.10
2022-08-20T12:29:59.695Z,4.80
2022-08-20T12:32:28.581Z,5.45
2022-08-20T12:34:55.548Z,5.30
2022-08-20T12:37:25.437Z,5.68
2022-08-20T12:39:56.201Z,5.57
2022-08-20T12:42:23.112Z,5.67
2022-08-20T12:44:50.313Z,5.95
2022-08-20T12:47:24.247Z,4.80
2022-08-20T12:49:57.864Z,5.70
2022-08-20T12:52:25.933Z,4.95
2022-08-20T12:54:53.905Z,5.50
2022-08-20T12:57:35.501Z,5.25
2022-08-20T13:00:08.478Z,5.78
2022-08-20T13:02:35.293Z,6.30
2022-08-20T13:05:04.963Z,5.60
2022-08-20T13:07:32.819Z,5.80
2022-08-20T13:10:00.697Z,6.05
2022-08-20T13:12:28.112Z,6.60
2022-08-20T13:14:54.932Z,6.70
2022-08-20T13:17:24.346Z,6.93
2022-08-20T13:20:09.174Z,6.53
2022-08-20T13:22:36.142Z,6.55
2022-08-20T13:25:03.641Z,6.93
2022-08-20T13:27:30.536Z,7.72
2022-08-20T13:29:58.914Z,7.70
2022-08-20T13:32:26.491Z,7.55
2022-08-20T13:34:53.605Z,8.13
2022-08-20T13:37:25.513Z,8.18
2022-08-20T13:39:53.745Z,9.18
2022-08-20T13:42:20.725Z,8.75
2022-08-20T13:44:47.919Z,9.45
2022-08-20T13:47:15.084Z,8.55
2022-08-20T13:49:41.801Z,9.50
2022-08-20T13:52:08.562Z,10.02
2022-08-20T13:54:35.300Z,10.00
2022-08-20T13:57:11.219Z,9.50
2022-08-20T13:59:43.590Z,10.18
2022-08-20T14:02:11.876Z,10.63
2022-08-20T14:04:39.449Z,11.50
2022-08-20T14:07:17.516Z,11.98
2022-08-20T14:09:47.854Z,12.00
2022-08-20T14:12:15.500Z,11.70
2022-08-20T14:14:43.532Z,11.50
2022-08-20T14:17:32.145Z,11.88
2022-08-20T14:20:02.524Z,12.23
2022-08-20T14:22:29.892Z,12.65
2022-08-20T14:24:56.838Z,12.63
2022-08-20T14:27:29.022Z,11.85
2022-08-20T14:29:58.744Z,11.27
2022-08-20T14:32:25.687Z,12.30
2022-08-20T14:34:53.007Z,12.43
2022-08-20T14:37:27.186Z,13.10
2022-08-20T14:39:57.156Z,13.25
2022-08-20T14:42:26.545Z,13.10
2022-08-20T14:44:54.342Z,13.57
2022-08-20T14:47:22.536Z,12.68
2022-08-20T14:49:50.928Z,13.20
2022-08-20T14:52:20.448Z,12.90
2022-08-20T14:54:47.916Z,13.18
2022-08-20T14:57:16.649Z,13.10
2022-08-20T14:59:44.886Z,13.02
2022-08-20T15:02:14.861Z,13.82
2022-08-20T15:04:42.508Z,15.23
2022-08-20T15:07:22.317Z,13.27
2022-08-20T15:09:48.988Z,13.80
2022-08-20T15:12:15.777Z,13.88
2022-08-20T15:14:42.440Z,15.07
2022-08-20T15:17:11.268Z,14.18
2022-08-20T15:19:37.928Z,14.23
2022-08-20T15:22:04.670Z,14.90
2022-08-20T15:24:31.361Z,13.45
2022-08-20T15:26:58.020Z,14.50
2022-08-20T15:29:24.680Z,14.45
2022-08-20T15:31:51.569Z,13.05
2022-08-20T15:34:18.497Z,13.50
2022-08-20T15:36:45.843Z,13.57
2022-08-20T15:39:12.552Z,12.52
2022-08-20T15:41:39.280Z,14.55
2022-08-20T15:44:07.236Z,14.15
2022-08-20T15:46:37.500Z,14.18
2022-08-20T15:49:11.477Z,14.10
2022-08-20T15:51:45.260Z,14.00
2022-08-20T15:54:19.344Z,13.15
2022-08-20T15:57:05.085Z,14.23
2022-08-20T15:59:40.904Z,14.30
2022-08-20T16:02:51.769Z,14.15
2022-08-20T16:05:46.894Z,13.95
2022-08-20T16:08:32.144Z,15.25
2022-08-20T16:11:11.000Z,14.43
2022-08-20T16:13:49.673Z,13.65
2022-08-20T16:16:25.629Z,14.98
2022-08-20T16:18:53.978Z,14.18
2022-08-20T16:21:30.987Z,15.23
2022-08-20T16:23:58.292Z,14.57
2022-08-20T16:26:43.819Z,14.77
2022-08-20T16:29:26.505Z,15.63
2022-08-20T16:32:18.236Z,14.63
2022-08-20T16:34:57.748Z,15.48
2022-08-20T16:37:45.085Z,15.65
2022-08-20T16:40:34.309Z,15.90
2022-08-20T16:43:04.609Z,16.15
2022-08-20T16:45:45.655Z,16.67
2022-08-20T16:48:18.581Z,15.32
2022-08-20T16:50:45.239Z,17.17
2022-08-20T16:53:19.633Z,17.02
2022-08-20T16:55:46.976Z,16.95
2022-08-20T16:58:14.097Z,16.38
2022-08-20T17:00:45.036Z,16.63
2022-08-20T17:03:34.938Z,16.70
2022-08-20T17:06:33.204Z,18.65
2022-08-20T17:09:08.680Z,18.77
2022-08-20T17:11:37.296Z,17.88
2022-08-20T17:14:03.965Z,17.40
2022-08-20T17:16:43.842Z,17.60
2022-08-20T17:19:32.469Z,19.65
2022-08-20T17:22:17.966Z,17.52
2022-08-20T17:24:44.689Z,16.23
2022-08-20T17:27:15.062Z,17.25
2022-08-20T17:29:54.448Z,15.63
2022-08-20T17:32:22.819Z,17.00
2022-08-20T17:34:52.385Z,18.35
2022-08-20T17:37:33.577Z,18.17
2022-08-20T17:40:17.275Z,18.60
2022-08-20T17:42:52.643Z,18.67
2022-08-20T17:45:28.421Z,17.92
2022-08-20T17:47:58.552Z,19.25
2022-08-20T17:50:31.857Z,20.75
2022-08-20T17:53:09.257Z,20.15
2022-08-20T17:55:36.842Z,19.58
2022-08-20T17:58:10.460Z,21.02
2022-08-20T18:00:37.180Z,21.23
2022-08-20T18:03:26.546Z,21.05
2022-08-20T18:06:30.429Z,20.52
2022-08-20T18:09:04.938Z,5.90
2022-08-20T18:11:44.678Z,6.53
2022-08-20T18:14:30.136Z,6.32
2022-08-20T18:17:15.277Z,6.50
2022-08-20T18:20:09.910Z,7.20
2022-08-20T18:22:46.724Z,6.75
2022-08-20T18:25:13.354Z,7.78
2022-08-20T18:27:48.809Z,6.90
2022-08-20T18:30:19.237Z,5.55
2022-08-20T18:32:48.732Z,5.80
2022-08-20T18:35:39.672Z,6.05
2022-08-20T18:38:29.228Z,6.15
2022-08-20T18:41:24.047Z,6.35
2022-08-20T18:44:12.174Z,6.40
2022-08-20T18:46:52.226Z,6.15
2022-08-20T18:49:29.219Z,6.10
2022-08-20T18:51:56.452Z,6.60
2022-08-20T18:54:31.952Z,6.32
2022-08-20T18:57:07.347Z,7.10
2022-08-20T18:59:42.881Z,7.05
2022-08-20T19:02:23.844Z,7.25
2022-08-20T19:04:59.807Z,7.38
2022-08-20T19:07:45.688Z,7.60
2022-08-20T19:10:40.532Z,7.53
2022-08-20T19:13:34.445Z,8.00
2022-08-20T19:16:21.138Z,7.40
2022-08-20T19:18:52.173Z,8.60
2022-08-20T19:21:37.501Z,8.20
2022-08-20T19:24:07.399Z,7.97
2022-08-20T19:26:42.309Z,8.20
2022-08-20T19:29:13.197Z,7.65
2022-08-20T19:31:41.790Z,7.45
2022-08-20T19:34:19.993Z,8.40
2022-08-20T19:36:58.762Z,8.45
2022-08-20T19:39:29.979Z,8.60
2022-08-20T19:42:03.686Z,9.38
2022-08-20T19:44:48.546Z,8.75
2022-08-20T19:47:20.512Z,9.65
2022-08-20T19:50:13.674Z,8.90
2022-08-20T19:52:55.615Z,9.38
2022-08-20T19:55:26.177Z,8.73
2022-08-20T19:57:55.498Z,8.02
2022-08-20T20:00:25.564Z,7.97
2022-08-20T20:02:52.566Z,8.13
2022-08-20T20:05:19.321Z,8.98
2022-08-20T20:07:52.216Z,8.52
2022-08-20T20:10:35.244Z,9.20
2022-08-20T20:13:09.956Z,9.15
2022-08-20T20:15:38.093Z,10.05
2022-08-20T20:18:05.899Z,8.77
2022-08-20T20:20:36.632Z,7.95
2022-08-20T20:23:17.008Z,9.50
2022-08-20T20:25:45.940Z,8.50
2022-08-20T20:28:24.567Z,8.57
2022-08-20T20:30:51.292Z,9.60
2022-08-20T20:33:31.420Z,9.68
2022-08-20T20:36:06.951Z,9.35
2022-08-20T20:38:34.488Z,9.05
2022-08-20T20:41:03.399Z,9.20
2022-08-20T20:43:36.863Z,8.60
2022-08-20T20:46:21.419Z,10.18
2022-08-20T20:48:57.682Z,9.43
2022-08-20T20:51:31.948Z,10.27
2022-08-20T20:54:02.537Z,9.75
2022-08-20T20:56:34.490Z,8.77
2022-08-20T20:59:06.073Z,9.02
2022-08-20T21:01:49.297Z,8.90
2022-08-20T21:04:22.772Z,9.38
2022-08-20T21:06:52.129Z,8.60
2022-08-20T21:09:19.508Z,9.73
2022-08-20T21:11:46.509Z,9.50
2022-08-20T21:14:13.831Z,9.10
2022-08-20T21:16:41.090Z,9.25
2022-08-20T21:19:10.124Z,9.27
2022-08-20T21:21:39.128Z,10.00
2022-08-20T21:24:07.253Z,9.05
2022-08-20T21:26:34.512Z,10.27
2022-08-20T21:29:01.348Z,9.70
2022-08-20T21:31:34.392Z,9.80
2022-08-20T21:34:01.636Z,10.25
2022-08-20T21:36:28.448Z,9.80
2022-08-20T21:38:55.598Z,10.40
2022-08-20T21:41:29.511Z,11.25
2022-08-20T21:44:05.810Z,10.45
2022-08-20T21:46:32.531Z,10.55
2022-08-20T21:48:59.176Z,11.32
2022-08-20T21:51:28.276Z,11.60
2022-08-20T21:53:55.156Z,11.60
2022-08-20T21:56:22.560Z,11.23
2022-08-20T21:58:51.043Z,12.93
2022-08-20T22:01:22.166Z,11.50
2022-08-20T22:03:51.684Z,12.32
2022-08-20T22:06:19.244Z,11.48
2022-08-20T22:08:45.972Z,11.95
2022-08-20T22:11:13.704Z,11.45
2022-08-20T22:13:41.143Z,10.63
2022-08-20T22:16:09.915Z,10.13
2022-08-20T22:18:37.176Z,11.57
2022-08-20T22:21:07.671Z,10.77
2022-08-20T22:23:34.552Z,11.25
2022-08-20T22:26:01.288Z,11.23
2022-08-20T22:28:27.944Z,10.75
2022-08-20T22:30:54.611Z,11.13
2022-08-20T22:33:23.504Z,11.05
2022-08-20T22:35:53.763Z,11.95
2022-08-20T22:38:21.003Z,11.18
2022-08-20T22:40:47.939Z,10.68
2022-08-20T22:43:15.520Z,11.13
2022-08-20T22:45:44.498Z,11.43
2022-08-20T22:48:14.293Z,11.23
2022-08-20T22:50:41.059Z,10.85
2022-08-20T22:53:08.556Z,11.00
2022-08-20T22:55:36.102Z,10.68
2022-08-20T22:58:03.424Z,11.15
2022-08-20T23:00:31.948Z,11.20
2022-08-20T23:03:00.348Z,10.25
2022-08-20T23:05:31.316Z,10.50
2022-08-20T23:08:00.029Z,11.37
2022-08-20T23:10:28.997Z,10.98
2022-08-20T23:12:57.158Z,10.07
2022-08-20T23:15:25.748Z,10.48
2022-08-20T23:17:55.868Z,10.00
2022-08-20T23:20:22.677Z,10.38
2022-08-20T23:22:49.342Z,10.60
2022-08-20T23:25:17.933Z,10.13
2022-08-20T23:27:50.979Z,9.45
2022-08-20T23:30:20.021Z,9.98
2022-08-20T23:32:46.770Z,9.48
2022-08-20T23:35:13.992Z,9.85
2022-08-20T23:37:52.833Z,9.80
2022-08-20T23:40:26.874Z,9.38
2022-08-20T23:42:56.027Z,10.05
2022-08-20T23:45:22.852Z,9.55
2022-08-20T23:47:50.212Z,10.07
2022-08-20T23:50:19.667Z,9.45
2022-08-20T23:52:46.370Z,9.52
2022-08-20T23:55:13.101Z,9.75
2022-08-20T23:57:40.087Z,10.18
